Lille-Lesquin Airport

LFQQ · North, Hauts-de-France, 法国

罗盘
风向 的 Lille-Lesquin Airport 1/19
风: 3 kt, 1 beaufort

3 kt

1 kt
改变
0 1.000 2.000 3.000 4.000 5.000
垂直能见度
METAR LFQQ 292330Z AUTO VRB03KT 1100 0900 R26/1500D R08/1900U BCFG VV/// 05/05 Q1023 TEMPO 0300

METAR Lille-Lesquin Airport - LFQQ/LIL

Lille-Lesquin Airport是,法国中的中型机场。 该机场有2条跑道: 1/19 和 8/26. 该领域的国际民航组织标志是LFQQ 它的国际航空运输协会代码是LIL.

这份报告是针对2022年11月30日 00:30, 当地时间在Lille-Lesquin Airport进行的。

机场观察

可变方向的风很小或没有风。

可见度为900 m。 跑道26的能见度为1.500 m 和 减少。 跑道08的能见度为1.900 m 和 增加。

垂直能见度为0 ft 没有观察到天花板。

当前天气为的补丁 多雾路段。 温度为5 °C,阵风为2 °C。 露点为5 °C,相对湿度为100%。 海平面上的气压为1023 hPa (QNH)。

发展趋势

  • 暂时的

    可变方向的风很小或没有。 可见性变为300 m。

白天

今天,太阳从08:23升起,在16:47降落。 这适用于Lille-Lesquin Airport,世界夏令时可能有所不同。 当地时间与世界标准时间之间的时差为+1 小时。 当前,没有夏令时有效。

公司介绍

在这个机场,你可以找到飞行俱乐部。 本场上唯一已知的公司是Club Aérien Lille Métropole。

体会

到Vliegles.nl去找飞行课程,跳伞和其他飞行体验。 浏览页面,了解Lille-Lesquin Airport附近所有可用的活动。 你也可以使用搜索功能来寻找你所在地附近的特定飞行课程、跳伞或其他飞行体验。

警示语

垂直能见度为0 ft。
跑道26处的能见度为1.500 m 和 减少。
跑道08处的能见度为1.900 m 和 增加。

跑道

Id 标题 侧风 逆风 侧风 %
1/19 015°-195° 3 kt 26 %
8/26 078°-258° 3 kt 98 %

逆风成分最大的方向会被突出显示,并用于横风计算。 这并不一定意味着这个方向在使用。

乌云

0 ft VV 垂直能见度

温度 & 天气

天气 的补丁 多雾路段
温度 5 °C
露点 5 °C
相对湿度 100%
风寒 2 °C
Kp-index 3 (0-9)

白天

日出
08:23 (7:35)
中午
12:35
日落
16:47

小工具

你想在你的网站上有一个关于Lille-Lesquin Airport的当前航空天气(METAR)的小部件吗?

显示HTML代码

我们和第三方通过cookies跟踪您在我们网站上的互联网行为。如果你继续,我们认为你同意我们的饼干政策